sensor_id;sensor_type;location;lat;lon;timestamp;P1;durP1;ratioP1;P2;durP2;ratioP2
81629;SDS011;71039;49.500;10.418;2024-02-21T00:00:36;2.53;;;2.33;;
81629;SDS011;71039;49.500;10.418;2024-02-21T00:03:02;1.85;;;1.75;;
81629;SDS011;71039;49.500;10.418;2024-02-21T00:05:28;2.80;;;2.60;;
81629;SDS011;71039;49.500;10.418;2024-02-21T00:07:53;2.47;;;2.17;;
81629;SDS011;71039;49.500;10.418;2024-02-21T00:10:19;2.25;;;2.08;;
81629;SDS011;71039;49.500;10.418;2024-02-21T00:12:44;2.97;;;2.60;;
81629;SDS011;71039;49.500;10.418;2024-02-21T00:15:10;2.15;;;2.05;;
81629;SDS011;71039;49.500;10.418;2024-02-21T00:17:35;3.05;;;2.25;;
81629;SDS011;71039;49.500;10.418;2024-02-21T00:20:01;2.28;;;2.13;;
81629;SDS011;71039;49.500;10.418;2024-02-21T00:22:26;3.92;;;1.83;;
81629;SDS011;71039;49.500;10.418;2024-02-21T00:24:52;2.38;;;2.17;;
81629;SDS011;71039;49.500;10.418;2024-02-21T00:27:17;6.53;;;2.90;;
81629;SDS011;71039;49.500;10.418;2024-02-21T00:29:43;2.65;;;2.50;;
81629;SDS011;71039;49.500;10.418;2024-02-21T00:32:08;2.17;;;2.03;;
81629;SDS011;71039;49.500;10.418;2024-02-21T00:34:34;3.30;;;3.00;;
81629;SDS011;71039;49.500;10.418;2024-02-21T00:36:59;2.22;;;2.13;;
81629;SDS011;71039;49.500;10.418;2024-02-21T00:39:25;2.58;;;2.20;;
81629;SDS011;71039;49.500;10.418;2024-02-21T00:41:51;5.10;;;3.20;;
81629;SDS011;71039;49.500;10.418;2024-02-21T00:44:17;2.45;;;2.25;;
81629;SDS011;71039;49.500;10.418;2024-02-21T00:46:42;2.70;;;2.53;;
81629;SDS011;71039;49.500;10.418;2024-02-21T00:49:08;2.65;;;2.45;;
81629;SDS011;71039;49.500;10.418;2024-02-21T00:51:33;2.25;;;2.05;;
81629;SDS011;71039;49.500;10.418;2024-02-21T00:53:59;2.72;;;2.47;;
81629;SDS011;71039;49.500;10.418;2024-02-21T00:56:24;2.05;;;1.95;;
81629;SDS011;71039;49.500;10.418;2024-02-21T00:58:50;1.88;;;1.75;;
81629;SDS011;71039;49.500;10.418;2024-02-21T01:01:22;3.25;;;2.55;;
81629;SDS011;71039;49.500;10.418;2024-02-21T01:03:51;2.60;;;2.40;;
81629;SDS011;71039;49.500;10.418;2024-02-21T01:06:16;2.30;;;1.85;;
81629;SDS011;71039;49.500;10.418;2024-02-21T01:08:42;4.82;;;2.33;;
81629;SDS011;71039;49.500;10.418;2024-02-21T01:11:07;2.38;;;2.28;;
81629;SDS011;71039;49.500;10.418;2024-02-21T01:13:33;2.78;;;2.15;;
81629;SDS011;71039;49.500;10.418;2024-02-21T01:15:58;2.78;;;2.33;;
81629;SDS011;71039;49.500;10.418;2024-02-21T01:18:24;1.88;;;1.77;;
81629;SDS011;71039;49.500;10.418;2024-02-21T01:20:49;2.90;;;2.30;;
81629;SDS011;71039;49.500;10.418;2024-02-21T01:23:15;2.97;;;1.95;;
81629;SDS011;71039;49.500;10.418;2024-02-21T01:25:40;2.03;;;1.92;;
81629;SDS011;71039;49.500;10.418;2024-02-21T01:28:06;3.30;;;2.08;;
81629;SDS011;71039;49.500;10.418;2024-02-21T01:30:31;2.80;;;2.60;;
81629;SDS011;71039;49.500;10.418;2024-02-21T01:32:57;3.30;;;2.22;;
81629;SDS011;71039;49.500;10.418;2024-02-21T01:35:22;2.10;;;2.00;;
81629;SDS011;71039;49.500;10.418;2024-02-21T01:37:48;2.58;;;2.35;;
81629;SDS011;71039;49.500;10.418;2024-02-21T01:40:14;3.58;;;2.50;;
81629;SDS011;71039;49.500;10.418;2024-02-21T01:42:40;2.97;;;2.05;;
81629;SDS011;71039;49.500;10.418;2024-02-21T01:45:05;2.50;;;1.80;;
81629;SDS011;71039;49.500;10.418;2024-02-21T01:47:31;2.10;;;2.00;;
81629;SDS011;71039;49.500;10.418;2024-02-21T01:49:57;2.53;;;2.33;;
81629;SDS011;71039;49.500;10.418;2024-02-21T01:52:22;1.83;;;1.73;;
81629;SDS011;71039;49.500;10.418;2024-02-21T01:54:48;2.58;;;1.88;;
81629;SDS011;71039;49.500;10.418;2024-02-21T01:57:14;3.25;;;2.13;;
81629;SDS011;71039;49.500;10.418;2024-02-21T01:59:40;3.88;;;2.33;;
81629;SDS011;71039;49.500;10.418;2024-02-21T02:02:05;2.33;;;2.13;;
81629;SDS011;71039;49.500;10.418;2024-02-21T02:04:31;4.13;;;2.78;;
81629;SDS011;71039;49.500;10.418;2024-02-21T02:06:59;1.85;;;1.75;;
81629;SDS011;71039;49.500;10.418;2024-02-21T02:09:25;1.95;;;1.85;;
81629;SDS011;71039;49.500;10.418;2024-02-21T02:11:51;2.30;;;2.10;;
81629;SDS011;71039;49.500;10.418;2024-02-21T02:14:16;2.40;;;2.30;;
81629;SDS011;71039;49.500;10.418;2024-02-21T02:16:42;2.72;;;2.15;;
81629;SDS011;71039;49.500;10.418;2024-02-21T02:19:11;3.35;;;3.08;;
81629;SDS011;71039;49.500;10.418;2024-02-21T02:21:39;2.40;;;2.28;;
81629;SDS011;71039;49.500;10.418;2024-02-21T02:24:07;4.07;;;2.00;;
81629;SDS011;71039;49.500;10.418;2024-02-21T02:26:33;1.67;;;1.58;;
81629;SDS011;71039;49.500;10.418;2024-02-21T02:28:58;3.13;;;2.42;;
81629;SDS011;71039;49.500;10.418;2024-02-21T02:31:27;2.50;;;2.28;;
81629;SDS011;71039;49.500;10.418;2024-02-21T02:33:52;2.50;;;2.10;;
81629;SDS011;71039;49.500;10.418;2024-02-21T02:36:18;2.17;;;2.08;;
81629;SDS011;71039;49.500;10.418;2024-02-21T02:38:43;2.85;;;1.88;;
81629;SDS011;71039;49.500;10.418;2024-02-21T02:41:09;2.83;;;2.50;;
81629;SDS011;71039;49.500;10.418;2024-02-21T02:43:34;1.95;;;1.85;;
81629;SDS011;71039;49.500;10.418;2024-02-21T02:46:00;2.67;;;2.45;;
81629;SDS011;71039;49.500;10.418;2024-02-21T02:48:25;2.55;;;2.35;;
81629;SDS011;71039;49.500;10.418;2024-02-21T02:50:51;2.13;;;2.03;;
81629;SDS011;71039;49.500;10.418;2024-02-21T02:53:16;2.55;;;2.30;;
81629;SDS011;71039;49.500;10.418;2024-02-21T02:55:42;3.00;;;2.55;;
81629;SDS011;71039;49.500;10.418;2024-02-21T02:58:07;5.68;;;3.03;;
81629;SDS011;71039;49.500;10.418;2024-02-21T03:00:33;2.70;;;2.50;;
81629;SDS011;71039;49.500;10.418;2024-02-21T03:02:58;4.47;;;2.42;;
81629;SDS011;71039;49.500;10.418;2024-02-21T03:05:24;1.80;;;1.70;;
81629;SDS011;71039;49.500;10.418;2024-02-21T03:07:49;2.72;;;2.10;;
81629;SDS011;71039;49.500;10.418;2024-02-21T03:10:15;2.47;;;1.70;;
81629;SDS011;71039;49.500;10.418;2024-02-21T03:12:40;2.47;;;2.38;;
81629;SDS011;71039;49.500;10.418;2024-02-21T03:15:06;2.05;;;1.95;;
81629;SDS011;71039;49.500;10.418;2024-02-21T03:17:32;2.40;;;2.28;;
81629;SDS011;71039;49.500;10.418;2024-02-21T03:19:57;3.83;;;3.05;;
81629;SDS011;71039;49.500;10.418;2024-02-21T03:22:23;1.83;;;1.48;;
81629;SDS011;71039;49.500;10.418;2024-02-21T03:24:48;2.42;;;2.33;;
81629;SDS011;71039;49.500;10.418;2024-02-21T03:27:14;1.98;;;1.88;;
81629;SDS011;71039;49.500;10.418;2024-02-21T03:29:39;2.42;;;2.22;;
81629;SDS011;71039;49.500;10.418;2024-02-21T03:32:05;2.72;;;2.50;;
81629;SDS011;71039;49.500;10.418;2024-02-21T03:34:30;2.60;;;2.45;;
81629;SDS011;71039;49.500;10.418;2024-02-21T03:36:56;3.00;;;1.95;;
81629;SDS011;71039;49.500;10.418;2024-02-21T03:39:21;3.10;;;2.80;;
81629;SDS011;71039;49.500;10.418;2024-02-21T03:41:47;4.78;;;2.65;;
81629;SDS011;71039;49.500;10.418;2024-02-21T03:44:13;2.60;;;2.50;;
81629;SDS011;71039;49.500;10.418;2024-02-21T03:46:38;3.90;;;2.28;;
81629;SDS011;71039;49.500;10.418;2024-02-21T03:49:04;2.03;;;1.92;;
81629;SDS011;71039;49.500;10.418;2024-02-21T03:51:29;3.45;;;2.60;;
81629;SDS011;71039;49.500;10.418;2024-02-21T03:53:55;3.08;;;2.05;;
81629;SDS011;71039;49.500;10.418;2024-02-21T03:56:20;1.90;;;1.80;;
81629;SDS011;71039;49.500;10.418;2024-02-21T03:58:46;2.25;;;2.05;;
81629;SDS011;71039;49.500;10.418;2024-02-21T04:01:11;2.47;;;2.13;;
81629;SDS011;71039;49.500;10.418;2024-02-21T04:03:40;2.72;;;2.45;;
81629;SDS011;71039;49.500;10.418;2024-02-21T04:06:05;3.22;;;2.55;;
81629;SDS011;71039;49.500;10.418;2024-02-21T04:08:31;2.05;;;1.98;;
81629;SDS011;71039;49.500;10.418;2024-02-21T04:10:56;3.30;;;2.55;;
81629;SDS011;71039;49.500;10.418;2024-02-21T04:13:22;3.33;;;2.20;;
81629;SDS011;71039;49.500;10.418;2024-02-21T04:15:47;3.55;;;2.08;;
81629;SDS011;71039;49.500;10.418;2024-02-21T04:18:13;1.60;;;1.60;;
81629;SDS011;71039;49.500;10.418;2024-02-21T04:20:38;1.65;;;1.63;;
81629;SDS011;71039;49.500;10.418;2024-02-21T04:23:04;2.08;;;1.98;;
81629;SDS011;71039;49.500;10.418;2024-02-21T04:25:29;2.10;;;2.00;;
81629;SDS011;71039;49.500;10.418;2024-02-21T04:27:55;1.67;;;1.50;;
81629;SDS011;71039;49.500;10.418;2024-02-21T04:30:20;1.60;;;1.55;;
81629;SDS011;71039;49.500;10.418;2024-02-21T04:32:46;2.15;;;1.95;;
81629;SDS011;71039;49.500;10.418;2024-02-21T04:35:11;2.25;;;2.08;;
81629;SDS011;71039;49.500;10.418;2024-02-21T04:37:37;2.55;;;2.22;;
81629;SDS011;71039;49.500;10.418;2024-02-21T04:40:02;2.17;;;1.88;;
81629;SDS011;71039;49.500;10.418;2024-02-21T04:42:28;2.45;;;2.10;;
81629;SDS011;71039;49.500;10.418;2024-02-21T04:44:53;2.90;;;1.90;;
81629;SDS011;71039;49.500;10.418;2024-02-21T04:47:19;3.83;;;2.05;;
81629;SDS011;71039;49.500;10.418;2024-02-21T04:49:44;2.22;;;2.03;;
81629;SDS011;71039;49.500;10.418;2024-02-21T04:52:10;1.90;;;1.80;;
81629;SDS011;71039;49.500;10.418;2024-02-21T04:54:36;2.92;;;1.80;;
81629;SDS011;71039;49.500;10.418;2024-02-21T04:57:01;2.28;;;2.17;;
81629;SDS011;71039;49.500;10.418;2024-02-21T04:59:27;2.97;;;2.78;;
81629;SDS011;71039;49.500;10.418;2024-02-21T05:01:52;2.97;;;2.78;;
81629;SDS011;71039;49.500;10.418;2024-02-21T05:04:18;2.75;;;2.60;;
81629;SDS011;71039;49.500;10.418;2024-02-21T05:06:43;2.92;;;2.72;;
81629;SDS011;71039;49.500;10.418;2024-02-21T05:09:09;2.50;;;2.40;;
81629;SDS011;71039;49.500;10.418;2024-02-21T05:11:35;1.95;;;1.85;;
81629;SDS011;71039;49.500;10.418;2024-02-21T05:14:01;2.78;;;2.58;;
81629;SDS011;71039;49.500;10.418;2024-02-21T05:16:27;1.85;;;1.75;;
81629;SDS011;71039;49.500;10.418;2024-02-21T05:18:52;2.28;;;2.15;;
81629;SDS011;71039;49.500;10.418;2024-02-21T05:21:18;2.17;;;2.08;;
81629;SDS011;71039;49.500;10.418;2024-02-21T05:23:43;2.17;;;2.08;;
81629;SDS011;71039;49.500;10.418;2024-02-21T05:26:09;2.58;;;2.47;;
81629;SDS011;71039;49.500;10.418;2024-02-21T05:28:34;2.45;;;2.25;;
81629;SDS011;71039;49.500;10.418;2024-02-21T05:31:00;2.05;;;1.95;;
81629;SDS011;71039;49.500;10.418;2024-02-21T05:33:25;2.60;;;2.40;;
81629;SDS011;71039;49.500;10.418;2024-02-21T05:35:51;2.30;;;2.20;;
81629;SDS011;71039;49.500;10.418;2024-02-21T05:38:17;4.38;;;2.63;;
81629;SDS011;71039;49.500;10.418;2024-02-21T05:40:42;2.35;;;2.15;;
81629;SDS011;71039;49.500;10.418;2024-02-21T05:43:09;3.10;;;2.25;;
81629;SDS011;71039;49.500;10.418;2024-02-21T05:45:35;2.17;;;2.08;;
81629;SDS011;71039;49.500;10.418;2024-02-21T05:48:01;2.45;;;2.25;;
81629;SDS011;71039;49.500;10.418;2024-02-21T05:50:28;3.17;;;2.95;;
81629;SDS011;71039;49.500;10.418;2024-02-21T05:52:53;4.43;;;4.05;;
81629;SDS011;71039;49.500;10.418;2024-02-21T05:55:19;2.47;;;2.38;;
81629;SDS011;71039;49.500;10.418;2024-02-21T05:57:45;2.83;;;2.50;;
81629;SDS011;71039;49.500;10.418;2024-02-21T06:00:11;4.93;;;2.33;;
81629;SDS011;71039;49.500;10.418;2024-02-21T06:02:39;2.05;;;1.95;;
81629;SDS011;71039;49.500;10.418;2024-02-21T06:05:05;2.10;;;2.00;;
81629;SDS011;71039;49.500;10.418;2024-02-21T06:07:31;2.15;;;2.05;;
81629;SDS011;71039;49.500;10.418;2024-02-21T06:09:57;2.95;;;2.10;;
81629;SDS011;71039;49.500;10.418;2024-02-21T06:12:22;2.75;;;2.65;;
81629;SDS011;71039;49.500;10.418;2024-02-21T06:14:48;2.70;;;2.42;;
81629;SDS011;71039;49.500;10.418;2024-02-21T06:17:14;5.50;;;2.92;;
81629;SDS011;71039;49.500;10.418;2024-02-21T06:19:40;5.10;;;2.60;;
81629;SDS011;71039;49.500;10.418;2024-02-21T06:22:07;2.95;;;2.05;;
81629;SDS011;71039;49.500;10.418;2024-02-21T06:24:32;2.63;;;2.40;;
81629;SDS011;71039;49.500;10.418;2024-02-21T06:26:58;2.80;;;2.63;;
81629;SDS011;71039;49.500;10.418;2024-02-21T06:29:23;2.58;;;2.38;;
81629;SDS011;71039;49.500;10.418;2024-02-21T06:31:49;2.35;;;2.20;;
81629;SDS011;71039;49.500;10.418;2024-02-21T06:34:14;3.30;;;2.30;;
81629;SDS011;71039;49.500;10.418;2024-02-21T06:36:40;2.20;;;2.00;;
81629;SDS011;71039;49.500;10.418;2024-02-21T06:39:05;2.55;;;2.42;;
81629;SDS011;71039;49.500;10.418;2024-02-21T06:41:31;2.70;;;2.60;;
81629;SDS011;71039;49.500;10.418;2024-02-21T06:43:56;5.28;;;3.08;;
81629;SDS011;71039;49.500;10.418;2024-02-21T06:46:25;2.38;;;2.25;;
81629;SDS011;71039;49.500;10.418;2024-02-21T06:48:52;1.95;;;1.85;;
81629;SDS011;71039;49.500;10.418;2024-02-21T06:51:18;2.00;;;1.90;;
81629;SDS011;71039;49.500;10.418;2024-02-21T06:53:43;3.03;;;2.83;;
81629;SDS011;71039;49.500;10.418;2024-02-21T06:56:09;2.83;;;2.25;;
81629;SDS011;71039;49.500;10.418;2024-02-21T06:58:35;2.67;;;2.35;;
81629;SDS011;71039;49.500;10.418;2024-02-21T07:01:01;4.65;;;2.63;;
81629;SDS011;71039;49.500;10.418;2024-02-21T07:03:27;2.70;;;2.10;;
81629;SDS011;71039;49.500;10.418;2024-02-21T07:05:52;3.63;;;3.40;;
81629;SDS011;71039;49.500;10.418;2024-02-21T07:08:18;2.83;;;2.63;;
81629;SDS011;71039;49.500;10.418;2024-02-21T07:10:43;2.40;;;2.30;;
81629;SDS011;71039;49.500;10.418;2024-02-21T07:13:09;2.08;;;1.98;;
81629;SDS011;71039;49.500;10.418;2024-02-21T07:15:34;1.90;;;1.80;;
81629;SDS011;71039;49.500;10.418;2024-02-21T07:18:00;2.50;;;2.17;;
81629;SDS011;71039;49.500;10.418;2024-02-21T07:20:25;2.53;;;2.42;;
81629;SDS011;71039;49.500;10.418;2024-02-21T07:22:51;2.60;;;2.40;;
81629;SDS011;71039;49.500;10.418;2024-02-21T07:25:16;2.00;;;1.90;;
81629;SDS011;71039;49.500;10.418;2024-02-21T07:27:42;2.22;;;2.13;;
81629;SDS011;71039;49.500;10.418;2024-02-21T07:30:09;2.15;;;2.03;;
81629;SDS011;71039;49.500;10.418;2024-02-21T07:32:35;2.47;;;2.35;;
81629;SDS011;71039;49.500;10.418;2024-02-21T07:35:00;1.70;;;1.60;;
81629;SDS011;71039;49.500;10.418;2024-02-21T07:37:26;2.58;;;2.03;;
81629;SDS011;71039;49.500;10.418;2024-02-21T07:39:51;3.00;;;2.80;;
81629;SDS011;71039;49.500;10.418;2024-02-21T07:42:17;2.58;;;2.25;;
81629;SDS011;71039;49.500;10.418;2024-02-21T07:44:42;1.90;;;1.50;;
81629;SDS011;71039;49.500;10.418;2024-02-21T07:47:08;3.67;;;2.75;;
81629;SDS011;71039;49.500;10.418;2024-02-21T07:49:40;2.97;;;2.53;;
81629;SDS011;71039;49.500;10.418;2024-02-21T07:52:06;1.90;;;1.80;;
81629;SDS011;71039;49.500;10.418;2024-02-21T07:54:32;2.38;;;2.03;;
81629;SDS011;71039;49.500;10.418;2024-02-21T07:56:57;2.47;;;2.28;;
81629;SDS011;71039;49.500;10.418;2024-02-21T07:59:23;1.38;;;1.38;;
81629;SDS011;71039;49.500;10.418;2024-02-21T08:01:48;2.10;;;1.67;;
81629;SDS011;71039;49.500;10.418;2024-02-21T08:04:14;2.42;;;2.25;;
81629;SDS011;71039;49.500;10.418;2024-02-21T08:06:39;1.85;;;1.75;;
81629;SDS011;71039;49.500;10.418;2024-02-21T08:09:05;1.88;;;1.77;;
81629;SDS011;71039;49.500;10.418;2024-02-21T08:11:30;2.05;;;1.88;;
81629;SDS011;71039;49.500;10.418;2024-02-21T08:13:56;2.88;;;2.05;;
81629;SDS011;71039;49.500;10.418;2024-02-21T08:16:21;1.65;;;1.27;;
81629;SDS011;71039;49.500;10.418;2024-02-21T08:18:47;1.63;;;1.52;;
81629;SDS011;71039;49.500;10.418;2024-02-21T08:21:12;1.58;;;1.58;;
81629;SDS011;71039;49.500;10.418;2024-02-21T08:23:38;2.22;;;1.67;;
81629;SDS011;71039;49.500;10.418;2024-02-21T08:26:03;1.75;;;1.65;;
81629;SDS011;71039;49.500;10.418;2024-02-21T08:28:29;2.83;;;2.25;;
81629;SDS011;71039;49.500;10.418;2024-02-21T08:30:54;1.60;;;1.50;;
81629;SDS011;71039;49.500;10.418;2024-02-21T08:33:20;1.55;;;1.45;;
81629;SDS011;71039;49.500;10.418;2024-02-21T08:35:45;1.75;;;1.65;;
81629;SDS011;71039;49.500;10.418;2024-02-21T08:38:11;1.67;;;1.58;;
81629;SDS011;71039;49.500;10.418;2024-02-21T08:40:37;3.28;;;1.98;;
81629;SDS011;71039;49.500;10.418;2024-02-21T08:43:02;1.85;;;1.75;;
81629;SDS011;71039;49.500;10.418;2024-02-21T08:45:28;1.52;;;1.42;;
81629;SDS011;71039;49.500;10.418;2024-02-21T08:47:53;1.83;;;1.73;;
81629;SDS011;71039;49.500;10.418;2024-02-21T08:50:19;1.95;;;1.75;;
81629;SDS011;71039;49.500;10.418;2024-02-21T08:52:44;3.03;;;1.77;;
81629;SDS011;71039;49.500;10.418;2024-02-21T08:55:10;2.28;;;1.90;;
81629;SDS011;71039;49.500;10.418;2024-02-21T08:57:35;2.40;;;1.90;;
81629;SDS011;71039;49.500;10.418;2024-02-21T09:00:03;3.28;;;1.85;;
81629;SDS011;71039;49.500;10.418;2024-02-21T09:02:29;1.83;;;1.40;;
81629;SDS011;71039;49.500;10.418;2024-02-21T09:04:55;1.83;;;1.73;;
81629;SDS011;71039;49.500;10.418;2024-02-21T09:07:20;1.50;;;1.40;;
81629;SDS011;71039;49.500;10.418;2024-02-21T09:09:46;2.20;;;2.00;;
81629;SDS011;71039;49.500;10.418;2024-02-21T09:12:11;1.58;;;1.20;;
81629;SDS011;71039;49.500;10.418;2024-02-21T09:14:37;1.98;;;1.58;;
81629;SDS011;71039;49.500;10.418;2024-02-21T09:17:03;1.30;;;1.20;;
81629;SDS011;71039;49.500;10.418;2024-02-21T09:19:28;1.42;;;1.10;;
81629;SDS011;71039;49.500;10.418;2024-02-21T09:21:54;2.08;;;1.98;;
81629;SDS011;71039;49.500;10.418;2024-02-21T09:24:19;1.55;;;1.45;;
81629;SDS011;71039;49.500;10.418;2024-02-21T09:26:45;1.70;;;1.60;;
81629;SDS011;71039;49.500;10.418;2024-02-21T09:29:10;2.55;;;2.05;;
81629;SDS011;71039;49.500;10.418;2024-02-21T09:31:36;2.97;;;1.52;;
81629;SDS011;71039;49.500;10.418;2024-02-21T09:34:01;4.90;;;2.42;;
81629;SDS011;71039;49.500;10.418;2024-02-21T09:36:27;2.80;;;1.58;;
81629;SDS011;71039;49.500;10.418;2024-02-21T09:38:52;3.03;;;1.75;;
81629;SDS011;71039;49.500;10.418;2024-02-21T09:41:18;2.33;;;1.85;;
81629;SDS011;71039;49.500;10.418;2024-02-21T09:43:51;2.60;;;1.83;;
81629;SDS011;71039;49.500;10.418;2024-02-21T09:46:17;2.53;;;1.60;;
81629;SDS011;71039;49.500;10.418;2024-02-21T09:51:28;1.90;;;1.60;;
81629;SDS011;71039;49.500;10.418;2024-02-21T09:53:57;1.70;;;1.60;;
81629;SDS011;71039;49.500;10.418;2024-02-21T09:56:24;1.67;;;1.45;;
81629;SDS011;71039;49.500;10.418;2024-02-21T09:58:50;2.03;;;1.92;;
81629;SDS011;71039;49.500;10.418;2024-02-21T10:01:15;2.30;;;1.52;;
81629;SDS011;71039;49.500;10.418;2024-02-21T10:03:41;2.10;;;1.33;;
81629;SDS011;71039;49.500;10.418;2024-02-21T10:06:06;1.83;;;1.40;;
81629;SDS011;71039;49.500;10.418;2024-02-21T10:08:32;1.55;;;1.45;;
81629;SDS011;71039;49.500;10.418;2024-02-21T10:10:57;1.80;;;0.95;;
81629;SDS011;71039;49.500;10.418;2024-02-21T10:13:26;1.10;;;1.05;;
81629;SDS011;71039;49.500;10.418;2024-02-21T10:18:27;2.35;;;1.90;;
81629;SDS011;71039;49.500;10.418;2024-02-21T10:21:02;1.92;;;1.27;;
81629;SDS011;71039;49.500;10.418;2024-02-21T10:23:29;3.67;;;1.90;;
81629;SDS011;71039;49.500;10.418;2024-02-21T10:26:04;1.95;;;1.80;;
81629;SDS011;71039;49.500;10.418;2024-02-21T10:28:30;2.47;;;1.23;;
81629;SDS011;71039;49.500;10.418;2024-02-21T10:30:56;3.13;;;1.95;;
81629;SDS011;71039;49.500;10.418;2024-02-21T10:33:21;1.63;;;1.52;;
81629;SDS011;71039;49.500;10.418;2024-02-21T10:35:47;1.95;;;1.40;;
81629;SDS011;71039;49.500;10.418;2024-02-21T10:38:12;2.00;;;1.90;;
81629;SDS011;71039;49.500;10.418;2024-02-21T10:40:38;3.85;;;2.17;;
81629;SDS011;71039;49.500;10.418;2024-02-21T10:43:04;3.33;;;1.77;;
81629;SDS011;71039;49.500;10.418;2024-02-21T10:45:36;1.83;;;1.73;;
81629;SDS011;71039;49.500;10.418;2024-02-21T10:48:08;2.65;;;2.25;;
81629;SDS011;71039;49.500;10.418;2024-02-21T10:56:04;1.48;;;1.38;;
81629;SDS011;71039;49.500;10.418;2024-02-21T10:58:46;1.60;;;1.50;;
81629;SDS011;71039;49.500;10.418;2024-02-21T11:01:13;1.83;;;1.73;;
81629;SDS011;71039;49.500;10.418;2024-02-21T11:03:39;1.85;;;1.25;;
81629;SDS011;71039;49.500;10.418;2024-02-21T11:06:07;1.92;;;1.67;;
81629;SDS011;71039;49.500;10.418;2024-02-21T11:08:35;2.20;;;2.00;;
81629;SDS011;71039;49.500;10.418;2024-02-21T11:11:01;2.40;;;1.35;;
81629;SDS011;71039;49.500;10.418;2024-02-21T11:13:44;1.73;;;1.50;;
81629;SDS011;71039;49.500;10.418;2024-02-21T11:16:11;1.55;;;1.50;;
81629;SDS011;71039;49.500;10.418;2024-02-21T11:18:46;1.33;;;1.23;;
81629;SDS011;71039;49.500;10.418;2024-02-21T11:21:12;3.33;;;1.13;;
81629;SDS011;71039;49.500;10.418;2024-02-21T11:23:37;2.40;;;1.40;;
81629;SDS011;71039;49.500;10.418;2024-02-21T11:26:05;2.03;;;1.33;;
81629;SDS011;71039;49.500;10.418;2024-02-21T11:28:35;2.05;;;1.50;;
81629;SDS011;71039;49.500;10.418;2024-02-21T11:31:08;1.55;;;1.45;;
81629;SDS011;71039;49.500;10.418;2024-02-21T11:33:36;2.80;;;1.63;;
81629;SDS011;71039;49.500;10.418;2024-02-21T11:36:08;1.35;;;1.27;;
81629;SDS011;71039;49.500;10.418;2024-02-21T11:38:34;1.50;;;1.40;;
81629;SDS011;71039;49.500;10.418;2024-02-21T11:40:59;1.85;;;1.25;;
81629;SDS011;71039;49.500;10.418;2024-02-21T11:43:25;1.48;;;1.35;;
81629;SDS011;71039;49.500;10.418;2024-02-21T11:45:50;1.80;;;1.70;;
81629;SDS011;71039;49.500;10.418;2024-02-21T11:48:23;4.13;;;1.73;;
81629;SDS011;71039;49.500;10.418;2024-02-21T11:50:53;2.53;;;1.50;;
81629;SDS011;71039;49.500;10.418;2024-02-21T11:53:21;2.30;;;1.45;;
81629;SDS011;71039;49.500;10.418;2024-02-21T11:55:47;1.95;;;1.65;;
81629;SDS011;71039;49.500;10.418;2024-02-21T11:58:13;1.65;;;1.55;;
81629;SDS011;71039;49.500;10.418;2024-02-21T12:00:39;2.15;;;1.80;;
81629;SDS011;71039;49.500;10.418;2024-02-21T12:03:06;3.38;;;1.63;;
81629;SDS011;71039;49.500;10.418;2024-02-21T12:05:31;2.05;;;1.30;;
81629;SDS011;71039;49.500;10.418;2024-02-21T12:07:57;2.20;;;1.17;;
81629;SDS011;71039;49.500;10.418;2024-02-21T12:10:23;3.00;;;1.45;;
81629;SDS011;71039;49.500;10.418;2024-02-21T12:12:49;1.05;;;1.05;;
81629;SDS011;71039;49.500;10.418;2024-02-21T12:15:14;1.30;;;1.20;;
81629;SDS011;71039;49.500;10.418;2024-02-21T12:17:40;1.27;;;1.25;;
81629;SDS011;71039;49.500;10.418;2024-02-21T12:20:05;2.50;;;1.42;;
81629;SDS011;71039;49.500;10.418;2024-02-21T12:22:31;1.95;;;1.40;;
81629;SDS011;71039;49.500;10.418;2024-02-21T12:24:57;0.85;;;0.85;;
81629;SDS011;71039;49.500;10.418;2024-02-21T12:27:23;2.10;;;1.38;;
81629;SDS011;71039;49.500;10.418;2024-02-21T12:29:48;2.38;;;1.23;;
81629;SDS011;71039;49.500;10.418;2024-02-21T12:32:14;1.77;;;1.38;;
81629;SDS011;71039;49.500;10.418;2024-02-21T12:34:39;1.95;;;1.45;;
81629;SDS011;71039;49.500;10.418;2024-02-21T12:37:05;2.80;;;1.58;;
81629;SDS011;71039;49.500;10.418;2024-02-21T12:39:30;2.28;;;1.42;;
81629;SDS011;71039;49.500;10.418;2024-02-21T12:41:56;1.13;;;1.02;;
81629;SDS011;71039;49.500;10.418;2024-02-21T12:44:21;1.48;;;1.38;;
81629;SDS011;71039;49.500;10.418;2024-02-21T12:46:47;1.40;;;1.30;;
81629;SDS011;71039;49.500;10.418;2024-02-21T12:49:12;1.40;;;1.33;;
81629;SDS011;71039;49.500;10.418;2024-02-21T12:51:38;2.47;;;1.30;;
81629;SDS011;71039;49.500;10.418;2024-02-21T12:54:03;1.42;;;1.33;;
81629;SDS011;71039;49.500;10.418;2024-02-21T12:56:29;1.42;;;1.33;;
81629;SDS011;71039;49.500;10.418;2024-02-21T12:58:54;1.33;;;1.17;;
81629;SDS011;71039;49.500;10.418;2024-02-21T13:01:20;1.90;;;1.40;;
81629;SDS011;71039;49.500;10.418;2024-02-21T13:03:46;1.33;;;1.23;;
81629;SDS011;71039;49.500;10.418;2024-02-21T13:06:11;1.58;;;1.10;;
81629;SDS011;71039;49.500;10.418;2024-02-21T13:08:37;2.72;;;1.45;;
81629;SDS011;71039;49.500;10.418;2024-02-21T13:11:03;2.83;;;1.25;;
81629;SDS011;71039;49.500;10.418;2024-02-21T13:13:29;1.73;;;1.63;;
81629;SDS011;71039;49.500;10.418;2024-02-21T13:15:55;1.80;;;0.85;;
81629;SDS011;71039;49.500;10.418;2024-02-21T13:18:21;1.58;;;1.35;;
81629;SDS011;71039;49.500;10.418;2024-02-21T13:20:47;2.45;;;1.55;;
81629;SDS011;71039;49.500;10.418;2024-02-21T13:23:13;2.65;;;1.17;;
81629;SDS011;71039;49.500;10.418;2024-02-21T13:25:38;1.42;;;1.33;;
81629;SDS011;71039;49.500;10.418;2024-02-21T13:28:04;1.52;;;1.42;;
81629;SDS011;71039;49.500;10.418;2024-02-21T13:30:29;1.85;;;1.27;;
81629;SDS011;71039;49.500;10.418;2024-02-21T13:32:55;2.42;;;1.48;;
81629;SDS011;71039;49.500;10.418;2024-02-21T13:35:20;1.50;;;1.40;;
81629;SDS011;71039;49.500;10.418;2024-02-21T13:37:46;2.42;;;2.22;;
81629;SDS011;71039;49.500;10.418;2024-02-21T13:40:12;1.05;;;1.05;;
81629;SDS011;71039;49.500;10.418;2024-02-21T13:42:37;1.98;;;1.85;;
81629;SDS011;71039;49.500;10.418;2024-02-21T13:45:03;1.20;;;1.13;;
81629;SDS011;71039;49.500;10.418;2024-02-21T13:47:29;1.65;;;1.50;;
81629;SDS011;71039;49.500;10.418;2024-02-21T13:49:55;2.03;;;1.70;;
81629;SDS011;71039;49.500;10.418;2024-02-21T13:52:20;2.38;;;1.05;;
81629;SDS011;71039;49.500;10.418;2024-02-21T13:54:46;1.80;;;1.02;;
81629;SDS011;71039;49.500;10.418;2024-02-21T13:57:12;1.88;;;1.50;;
81629;SDS011;71039;49.500;10.418;2024-02-21T13:59:37;2.25;;;2.10;;
81629;SDS011;71039;49.500;10.418;2024-02-21T14:02:03;1.02;;;1.02;;
81629;SDS011;71039;49.500;10.418;2024-02-21T14:04:28;2.17;;;1.23;;
81629;SDS011;71039;49.500;10.418;2024-02-21T14:06:54;1.60;;;1.50;;
81629;SDS011;71039;49.500;10.418;2024-02-21T14:09:19;1.20;;;1.10;;
81629;SDS011;71039;49.500;10.418;2024-02-21T14:11:45;1.63;;;0.85;;
81629;SDS011;71039;49.500;10.418;2024-02-21T14:14:10;1.73;;;1.23;;
81629;SDS011;71039;49.500;10.418;2024-02-21T14:16:36;1.90;;;1.30;;
81629;SDS011;71039;49.500;10.418;2024-02-21T14:19:01;1.42;;;1.33;;
81629;SDS011;71039;49.500;10.418;2024-02-21T14:21:27;3.08;;;1.35;;
81629;SDS011;71039;49.500;10.418;2024-02-21T14:23:52;1.23;;;1.08;;
81629;SDS011;71039;49.500;10.418;2024-02-21T14:26:18;1.60;;;1.50;;
81629;SDS011;71039;49.500;10.418;2024-02-21T14:28:44;2.58;;;1.30;;
81629;SDS011;71039;49.500;10.418;2024-02-21T14:31:09;1.65;;;1.55;;
81629;SDS011;71039;49.500;10.418;2024-02-21T14:33:35;1.15;;;1.05;;
81629;SDS011;71039;49.500;10.418;2024-02-21T14:36:01;1.60;;;1.35;;